Time;durP1;ratioP1;P1;durP2;ratioP2;P2;SDS_P1;SDS_P2;PMS_P1;PMS_P2;Temp;Humidity;BMP_temperature;BMP_pressure;BME280_temperature;BME280_humidity;BME280_pressure;Samples;Min_cycle;Max_cycle;Signal;HPM_P1;HPM_P2
2022/03/22 00:00:44;;;;;;;34.45;24.45;;;8.00;92.40;;;;;;5069809;28;37715;-50
2022/03/22 00:03:12;;;;;;;32.55;22.92;;;8.00;92.20;;;;;;5069369;28;37448;-52
2022/03/22 00:05:41;;;;;;;36.70;25.70;;;8.00;92.00;;;;;;5070204;28;35857;-52
2022/03/22 00:08:09;;;;;;;37.47;25.30;;;8.00;92.20;;;;;;5069479;28;36773;-53
2022/03/22 00:10:39;;;;;;;37.28;25.92;;;8.10;92.60;;;;;;5069743;28;38174;-52
2022/03/22 00:13:07;;;;;;;40.67;25.50;;;8.10;92.50;;;;;;5069549;27;37049;-52
2022/03/22 00:15:38;;;;;;;35.80;26.08;;;8.10;92.30;;;;;;5069587;27;37130;-51
2022/03/22 00:18:05;;;;;;;37.22;26.73;;;8.10;92.20;;;;;;5069104;27;35498;-52
2022/03/22 00:20:33;;;;;;;37.15;27.17;;;8.10;92.00;;;;;;5070246;27;37094;-52
2022/03/22 00:23:01;;;;;;;40.47;27.40;;;8.10;91.90;;;;;;5069963;27;38252;-51
2022/03/22 00:25:29;;;;;;;41.20;26.73;;;8.10;91.80;;;;;;5070467;27;36907;-51
2022/03/22 00:27:57;;;;;;;37.95;26.75;;;8.20;91.70;;;;;;5070673;27;35003;-51
2022/03/22 00:30:27;;;;;;;35.58;25.92;;;8.20;91.50;;;;;;5070804;28;38420;-51
2022/03/22 00:32:56;;;;;;;35.40;26.60;;;8.30;91.30;;;;;;5070251;27;37248;-53
2022/03/22 00:35:25;;;;;;;36.88;26.27;;;8.40;91.20;;;;;;5070902;28;37323;-51
2022/03/22 00:37:53;;;;;;;37.88;27.67;;;8.40;91.10;;;;;;5070192;28;36140;-51
2022/03/22 00:40:21;;;;;;;40.38;27.30;;;8.40;91.20;;;;;;5071177;28;37770;-51
2022/03/22 00:42:53;;;;;;;39.08;26.48;;;8.40;91.10;;;;;;5070090;27;37436;-48
2022/03/22 00:45:24;;;;;;;36.15;26.38;;;8.40;91.20;;;;;;5069811;28;38310;-49
2022/03/22 00:47:53;;;;;;;38.67;26.52;;;8.40;91.30;;;;;;5070524;27;36916;-49
2022/03/22 00:50:26;;;;;;;34.25;24.95;;;8.40;91.30;;;;;;5069192;28;37220;-47
2022/03/22 00:52:54;;;;;;;43.23;26.73;;;8.30;91.40;;;;;;5069691;27;38064;-49
2022/03/22 00:55:23;;;;;;;39.38;27.90;;;8.30;91.40;;;;;;5069253;27;35952;-50
2022/03/22 00:57:52;;;;;;;37.47;27.08;;;8.40;91.20;;;;;;5069672;28;37835;-50
2022/03/22 01:00:24;;;;;;;36.55;26.80;;;8.30;91.40;;;;;;5069676;27;37429;-51
2022/03/22 01:02:53;;;;;;;41.50;27.58;;;8.30;91.50;;;;;;5069776;27;37720;-51
2022/03/22 01:05:22;;;;;;;37.47;27.40;;;8.30;91.50;;;;;;5070056;28;38857;-50
2022/03/22 01:07:51;;;;;;;33.80;25.75;;;8.30;91.40;;;;;;5069085;27;37413;-52
2022/03/22 01:10:20;;;;;;;36.75;27.15;;;8.40;91.20;;;;;;5069944;27;37567;-51
2022/03/22 01:12:48;;;;;;;36.70;26.85;;;8.40;91.10;;;;;;5069257;28;38053;-48
2022/03/22 01:15:18;;;;;;;47.35;27.70;;;8.40;91.00;;;;;;5069472;27;35775;-51
2022/03/22 01:17:50;;;;;;;41.58;28.45;;;8.40;90.90;;;;;;5069374;27;37802;-49
2022/03/22 01:20:22;;;;;;;34.95;26.70;;;8.50;90.70;;;;;;5068035;27;37338;-48
2022/03/22 01:22:50;;;;;;;39.03;28.20;;;8.50;90.50;;;;;;5069346;28;36904;-51
2022/03/22 01:25:19;;;;;;;36.38;27.23;;;8.50;90.40;;;;;;5069854;28;37582;-50
2022/03/22 01:27:48;;;;;;;37.28;27.02;;;8.50;90.30;;;;;;5068733;27;35377;-49
2022/03/22 01:30:19;;;;;;;38.15;27.23;;;8.50;90.50;;;;;;5067279;28;36265;-50
2022/03/22 01:32:48;;;;;;;39.33;27.45;;;8.50;90.60;;;;;;5068536;28;37174;-49
2022/03/22 01:35:17;;;;;;;39.90;28.15;;;8.60;90.60;;;;;;5069128;28;37409;-49
2022/03/22 01:37:47;;;;;;;38.83;28.52;;;8.60;90.60;;;;;;5067913;28;35595;-49
2022/03/22 01:40:16;;;;;;;38.67;27.58;;;8.60;90.70;;;;;;5068004;27;39486;-48
2022/03/22 01:42:43;;;;;;;39.35;26.92;;;8.50;90.90;;;;;;5067077;28;39285;-48
2022/03/22 01:45:12;;;;;;;38.20;27.90;;;8.50;91.00;;;;;;5067261;27;37085;-50
2022/03/22 01:47:41;;;;;;;36.67;26.25;;;8.50;90.90;;;;;;5068007;28;36902;-50
2022/03/22 01:50:12;;;;;;;38.88;27.63;;;8.50;90.90;;;;;;5068829;27;37336;-50
2022/03/22 01:52:40;;;;;;;39.30;27.63;;;8.50;90.90;;;;;;5068231;28;37305;-50
2022/03/22 01:55:09;;;;;;;37.13;27.15;;;8.60;90.80;;;;;;5068267;27;37918;-52
2022/03/22 01:57:37;;;;;;;37.75;27.52;;;8.50;90.80;;;;;;5068981;27;38147;-50
2022/03/22 02:00:06;;;;;;;42.03;28.23;;;8.50;90.80;;;;;;5069655;28;38647;-51
2022/03/22 02:08:15;;;;;;;38.58;27.90;;;8.50;90.80;;;;;;5068024;28;37685;-50
2022/03/22 02:10:43;;;;;;;43.65;28.67;;;8.40;90.90;;;;;;5068406;27;38970;-51
2022/03/22 02:13:11;;;;;;;42.45;27.75;;;8.40;91.20;;;;;;5068813;28;36916;-50
2022/03/22 02:15:39;;;;;;;40.67;27.80;;;8.40;91.20;;;;;;5068936;27;40401;-50
2022/03/22 02:18:07;;;;;;;41.58;28.40;;;8.30;91.20;;;;;;5068452;27;37723;-47
2022/03/22 02:20:37;;;;;;;36.42;27.17;;;8.30;91.10;;;;;;5068497;28;39090;-49
2022/03/22 02:23:14;;;;;;;38.17;28.63;;;8.30;91.40;;;;;;5068227;27;37463;-51
2022/03/22 02:25:43;;;;;;;36.92;27.30;;;8.30;91.50;;;;;;5069036;27;37338;-50
2022/03/22 02:28:12;;;;;;;40.65;28.08;;;8.30;91.40;;;;;;5068036;27;37332;-49
2022/03/22 02:30:40;;;;;;;42.30;29.67;;;8.30;91.40;;;;;;5069085;27;37605;-51
2022/03/22 02:33:07;;;;;;;41.55;29.25;;;8.40;91.40;;;;;;5067279;27;37279;-50
2022/03/22 02:35:35;;;;;;;39.53;28.73;;;8.40;91.40;;;;;;5068636;27;37142;-51
2022/03/22 02:38:04;;;;;;;40.05;29.13;;;8.40;91.30;;;;;;5067194;28;36968;-51
2022/03/22 02:40:31;;;;;;;41.33;28.52;;;8.40;91.20;;;;;;5072038;27;37119;-50
2022/03/22 02:43:02;;;;;;;41.85;29.65;;;8.40;91.20;;;;;;5072402;27;38088;-50
2022/03/22 02:45:30;;;;;;;44.58;29.15;;;8.40;91.10;;;;;;5071797;28;37571;-51
2022/03/22 02:47:58;;;;;;;44.28;28.90;;;8.40;91.10;;;;;;5071549;27;37556;-50
2022/03/22 02:50:25;;;;;;;43.13;29.08;;;8.40;91.20;;;;;;5071776;27;36410;-48
2022/03/22 02:52:53;;;;;;;41.03;28.70;;;8.30;91.30;;;;;;5070341;27;37340;-50
2022/03/22 02:55:21;;;;;;;42.47;29.38;;;8.20;91.50;;;;;;5071419;28;39087;-51
2022/03/22 02:57:49;;;;;;;40.72;28.27;;;8.10;91.80;;;;;;5071573;28;36948;-51
2022/03/22 03:00:18;;;;;;;40.30;28.38;;;8.00;91.90;;;;;;5071233;27;36366;-51
2022/03/22 03:02:48;;;;;;;40.63;30.02;;;8.00;92.20;;;;;;5069491;27;37395;-50
2022/03/22 03:05:17;;;;;;;41.25;29.70;;;8.00;92.30;;;;;;5071456;28;39633;-49
2022/03/22 03:07:44;;;;;;;40.58;30.20;;;8.00;92.50;;;;;;5069514;27;37369;-48
2022/03/22 03:10:12;;;;;;;41.17;29.77;;;7.90;92.80;;;;;;5071383;27;38792;-51
2022/03/22 03:12:40;;;;;;;43.60;30.75;;;7.90;93.00;;;;;;5071376;27;36047;-51
2022/03/22 03:15:09;;;;;;;43.13;30.10;;;7.80;93.20;;;;;;5071740;27;37278;-48
2022/03/22 03:17:39;;;;;;;42.63;30.48;;;7.80;93.50;;;;;;5070898;28;36531;-50
2022/03/22 03:20:08;;;;;;;41.97;31.17;;;7.80;93.60;;;;;;5071549;27;38099;-50
2022/03/22 03:22:36;;;;;;;42.08;31.42;;;7.70;93.90;;;;;;5069549;28;39288;-51
2022/03/22 03:25:06;;;;;;;42.22;29.25;;;7.70;94.10;;;;;;5070576;28;37735;-47
2022/03/22 03:27:34;;;;;;;40.85;29.48;;;7.60;94.30;;;;;;5070576;27;35364;-51
2022/03/22 03:30:01;;;;;;;42.13;29.85;;;7.50;94.60;;;;;;5070205;27;37595;-51
2022/03/22 03:32:29;;;;;;;43.63;29.42;;;7.60;94.40;;;;;;5070624;28;37274;-51
2022/03/22 03:34:58;;;;;;;43.63;29.52;;;7.50;94.80;;;;;;5071181;27;37047;-52
2022/03/22 03:37:28;;;;;;;38.55;28.35;;;7.60;94.50;;;;;;5070692;28;38706;-51
2022/03/22 03:39:55;;;;;;;37.13;28.73;;;7.60;94.10;;;;;;5071763;27;37066;-50
2022/03/22 03:42:22;;;;;;;38.95;28.38;;;7.60;94.10;;;;;;5069709;27;38012;-49
2022/03/22 03:47:35;;;;;;;38.60;27.80;;;7.60;94.00;;;;;;5072033;28;37514;-50
2022/03/22 03:50:06;;;;;;;38.83;28.90;;;7.70;94.00;;;;;;5069958;28;36324;-50
2022/03/22 03:52:35;;;;;;;42.25;28.42;;;7.70;93.90;;;;;;5070657;28;36260;-50
2022/03/22 03:55:05;;;;;;;40.55;27.63;;;7.80;93.60;;;;;;5070848;28;37418;-47
2022/03/22 03:57:34;;;;;;;39.25;29.17;;;7.80;93.60;;;;;;5069660;28;37516;-50
2022/03/22 04:00:02;;;;;;;40.60;28.95;;;7.80;93.40;;;;;;5070546;28;38521;-49
2022/03/22 04:02:29;;;;;;;44.03;29.55;;;7.80;93.20;;;;;;5068750;27;38087;-47
2022/03/22 04:04:57;;;;;;;37.75;27.23;;;7.80;93.20;;;;;;5068065;27;37844;-48
2022/03/22 04:07:27;;;;;;;43.38;29.20;;;7.80;93.30;;;;;;5068043;28;35361;-50
2022/03/22 04:09:55;;;;;;;40.38;28.73;;;7.80;93.30;;;;;;5070076;27;37569;-49
2022/03/22 04:12:23;;;;;;;40.83;29.17;;;7.80;93.30;;;;;;5069582;27;37851;-48
2022/03/22 04:14:51;;;;;;;41.70;27.88;;;7.80;93.20;;;;;;5069723;28;37428;-51
2022/03/22 04:17:18;;;;;;;43.97;30.30;;;7.90;93.10;;;;;;5070464;28;38303;-49
2022/03/22 04:19:46;;;;;;;38.90;27.70;;;7.90;93.10;;;;;;5070696;27;37685;-50
2022/03/22 04:22:15;;;;;;;40.17;28.00;;;7.90;93.00;;;;;;5069684;27;38619;-49
2022/03/22 04:24:43;;;;;;;42.53;30.02;;;7.90;93.00;;;;;;5069904;28;38630;-48
2022/03/22 04:32:44;;;;;;;42.13;29.15;;;7.90;92.90;;;;;;5069789;27;38746;-50
2022/03/22 04:35:13;;;;;;;41.80;29.25;;;7.90;92.80;;;;;;5070314;28;37963;-51
2022/03/22 04:37:41;;;;;;;43.63;29.83;;;8.00;92.70;;;;;;5068195;28;37864;-51
2022/03/22 04:40:11;;;;;;;42.60;29.55;;;8.00;92.60;;;;;;5069977;27;37518;-51
2022/03/22 04:42:39;;;;;;;41.00;29.52;;;8.00;92.50;;;;;;5069445;27;37606;-50
2022/03/22 04:45:08;;;;;;;41.10;29.35;;;7.90;92.50;;;;;;5069219;27;37316;-49
2022/03/22 04:47:36;;;;;;;43.38;29.52;;;7.90;92.60;;;;;;5069260;27;38870;-49
2022/03/22 04:50:04;;;;;;;40.50;29.40;;;7.90;92.50;;;;;;5070131;28;38002;-50
2022/03/22 04:58:03;;;;;;;38.97;28.83;;;7.70;92.80;;;;;;5068731;28;37748;-51
2022/03/22 05:00:34;;;;;;;41.42;29.08;;;7.70;92.80;;;;;;5069961;27;37833;-51
2022/03/22 05:03:01;;;;;;;46.67;30.25;;;7.70;92.70;;;;;;5069471;28;35723;-50
2022/03/22 05:08:14;;;;;;;39.75;28.80;;;7.70;92.70;;;;;;5068422;28;39082;-50
2022/03/22 05:10:43;;;;;;;42.83;29.30;;;7.70;92.60;;;;;;5069072;28;37722;-50
2022/03/22 05:13:11;;;;;;;42.15;28.85;;;7.70;92.40;;;;;;5069323;28;38308;-47
2022/03/22 05:15:42;;;;;;;43.40;28.88;;;7.80;92.40;;;;;;5068704;27;38827;-48
2022/03/22 05:18:09;;;;;;;44.80;30.63;;;7.80;92.20;;;;;;5069573;28;36700;-51
2022/03/22 05:20:37;;;;;;;40.85;30.40;;;7.80;92.20;;;;;;5068700;27;40586;-50
2022/03/22 05:23:04;;;;;;;41.72;28.70;;;7.90;92.10;;;;;;5068116;27;37727;-50
2022/03/22 05:25:32;;;;;;;41.60;28.73;;;7.80;92.10;;;;;;5068834;28;37408;-50
2022/03/22 05:28:02;;;;;;;41.53;29.15;;;7.90;92.10;;;;;;5068286;27;34699;-50
2022/03/22 05:30:29;;;;;;;45.10;29.65;;;7.90;92.50;;;;;;5068680;27;37862;-51
2022/03/22 05:32:57;;;;;;;45.50;28.90;;;7.90;92.30;;;;;;5067951;27;38177;-49
2022/03/22 05:35:25;;;;;;;42.20;29.27;;;7.90;92.20;;;;;;5067972;27;36356;-50
2022/03/22 05:37:52;;;;;;;39.72;29.05;;;7.90;92.20;;;;;;5066848;27;36633;-51
2022/03/22 05:40:20;;;;;;;39.83;28.67;;;8.00;92.10;;;;;;5068039;28;37451;-50
2022/03/22 05:42:48;;;;;;;40.90;28.85;;;8.00;92.00;;;;;;5068358;27;38281;-47
2022/03/22 05:45:17;;;;;;;43.50;29.40;;;8.00;91.90;;;;;;5068507;28;36324;-49
2022/03/22 05:47:44;;;;;;;40.25;28.60;;;8.00;92.00;;;;;;5068694;27;35383;-51
2022/03/22 05:50:12;;;;;;;44.42;29.92;;;8.10;91.80;;;;;;5068913;27;37095;-50
2022/03/22 05:52:43;;;;;;;41.47;29.20;;;8.10;91.90;;;;;;5068623;27;37627;-50
2022/03/22 05:55:11;;;;;;;43.00;29.35;;;8.00;91.90;;;;;;5069621;27;37520;-50
2022/03/22 05:57:39;;;;;;;43.38;29.52;;;8.10;92.00;;;;;;5068579;28;36733;-51
2022/03/22 06:00:09;;;;;;;39.72;28.40;;;8.10;91.90;;;;;;5068776;28;36915;-51
2022/03/22 06:02:39;;;;;;;39.50;29.40;;;8.10;92.00;;;;;;5068506;28;37257;-47
2022/03/22 06:05:08;;;;;;;41.47;29.33;;;8.10;91.80;;;;;;5068883;28;36196;-51
2022/03/22 06:07:36;;;;;;;46.22;30.40;;;8.00;91.70;;;;;;5065775;28;37525;-51
2022/03/22 06:10:05;;;;;;;39.97;26.92;;;8.10;91.70;;;;;;5067657;28;37463;-51
2022/03/22 06:12:38;;;;;;;39.58;28.33;;;8.10;91.50;;;;;;5067995;27;37780;-51
2022/03/22 06:15:16;;;;;;;39.50;26.98;;;8.10;91.50;;;;;;5067415;28;37504;-47
2022/03/22 06:17:47;;;;;;;38.67;27.02;;;8.10;91.30;;;;;;5068782;28;37495;-51
2022/03/22 06:20:15;;;;;;;40.90;27.77;;;8.20;91.20;;;;;;5067890;27;37698;-51
2022/03/22 06:22:44;;;;;;;37.00;28.45;;;8.20;91.10;;;;;;5067780;28;37428;-49
2022/03/22 06:25:12;;;;;;;38.25;27.67;;;8.30;91.10;;;;;;5067810;28;39908;-47
2022/03/22 06:27:41;;;;;;;40.97;28.75;;;8.30;91.10;;;;;;5067055;27;37252;-50
2022/03/22 06:30:10;;;;;;;38.72;27.73;;;8.40;91.00;;;;;;5067576;27;37499;-50
2022/03/22 06:32:42;;;;;;;36.30;26.27;;;8.40;90.90;;;;;;5067277;28;40323;-49
2022/03/22 06:35:11;;;;;;;40.65;28.27;;;8.40;91.10;;;;;;5067827;28;37646;-51
2022/03/22 06:37:39;;;;;;;38.22;27.20;;;8.40;91.10;;;;;;5066695;27;36404;-51
2022/03/22 06:40:08;;;;;;;41.08;28.95;;;8.50;91.20;;;;;;5068037;28;38505;-56
2022/03/22 06:42:36;;;;;;;38.95;26.70;;;8.50;91.00;;;;;;5067913;28;36373;-56
2022/03/22 06:45:06;;;;;;;38.70;27.10;;;8.60;90.90;;;;;;5067720;28;37154;-56
2022/03/22 06:47:34;;;;;;;40.75;29.08;;;8.70;91.00;;;;;;5068178;27;36983;-56
2022/03/22 06:50:03;;;;;;;37.95;26.42;;;8.80;90.90;;;;;;5065477;27;38917;-56
2022/03/22 06:52:32;;;;;;;40.05;26.73;;;8.80;90.80;;;;;;5068760;27;38460;-56
2022/03/22 06:55:00;;;;;;;34.60;26.77;;;8.90;90.70;;;;;;5068038;27;37480;-56
2022/03/22 06:57:28;;;;;;;41.47;28.20;;;9.10;90.50;;;;;;5066440;27;38367;-56
2022/03/22 06:59:56;;;;;;;40.60;28.13;;;9.10;90.40;;;;;;5067145;28;37654;-56
2022/03/22 07:02:23;;;;;;;39.00;28.67;;;9.20;90.30;;;;;;5066885;27;36347;-56
2022/03/22 07:04:51;;;;;;;39.35;27.38;;;9.20;90.50;;;;;;5064989;27;37364;-56
2022/03/22 07:07:19;;;;;;;39.38;28.77;;;9.20;90.20;;;;;;5065243;27;36921;-56
2022/03/22 07:09:48;;;;;;;40.75;29.15;;;9.20;90.10;;;;;;5066056;28;38069;-56
2022/03/22 07:12:16;;;;;;;37.45;28.30;;;9.20;89.90;;;;;;5065952;27;37899;-56
2022/03/22 07:14:43;;;;;;;38.83;27.55;;;9.20;89.80;;;;;;5066292;28;38140;-56
2022/03/22 07:17:11;;;;;;;39.10;27.50;;;9.30;89.80;;;;;;5065606;27;36378;-56
2022/03/22 07:19:39;;;;;;;40.60;27.88;;;9.30;89.70;;;;;;5065610;27;39007;-57
2022/03/22 07:22:07;;;;;;;35.38;27.23;;;9.30;89.80;;;;;;5064738;27;38839;-54
2022/03/22 07:24:35;;;;;;;39.60;27.75;;;9.40;90.10;;;;;;5063086;28;37446;-56
2022/03/22 07:27:05;;;;;;;40.85;27.83;;;9.30;90.40;;;;;;5067508;28;37218;-56
2022/03/22 07:29:32;;;;;;;40.50;28.95;;;9.70;90.10;;;;;;5068992;27;37305;-56
2022/03/22 07:32:00;;;;;;;38.97;27.15;;;9.90;90.00;;;;;;5069778;28;37095;-56
2022/03/22 07:34:28;;;;;;;38.67;27.25;;;10.10;89.90;;;;;;5069797;28;37257;-56
2022/03/22 07:36:56;;;;;;;40.45;28.20;;;10.40;89.50;;;;;;5071364;28;37670;-56
2022/03/22 07:39:25;;;;;;;41.58;27.80;;;10.50;89.00;;;;;;5069904;27;37376;-56
2022/03/22 07:41:53;;;;;;;40.28;27.88;;;10.60;89.70;;;;;;5070192;28;37922;-56
2022/03/22 07:44:22;;;;;;;39.08;28.25;;;10.70;89.60;;;;;;5069755;28;38380;-56
2022/03/22 07:46:50;;;;;;;36.53;27.05;;;10.90;89.40;;;;;;5069650;27;39768;-56
2022/03/22 07:54:47;;;;;;;37.75;27.23;;;11.40;86.60;;;;;;5069736;28;38969;-56
2022/03/22 07:57:14;;;;;;;38.95;27.75;;;11.70;86.20;;;;;;5068735;28;36244;-56
2022/03/22 07:59:43;;;;;;;41.08;29.20;;;11.90;86.40;;;;;;5070520;27;38582;-56
2022/03/22 08:02:11;;;;;;;37.33;26.67;;;12.10;85.90;;;;;;5069970;28;37558;-55
2022/03/22 08:04:38;;;;;;;40.63;27.08;;;12.40;84.40;;;;;;5070900;27;37465;-56
2022/03/22 08:07:07;;;;;;;36.70;26.85;;;12.70;82.60;;;;;;5070259;27;35459;-56
2022/03/22 08:09:35;;;;;;;37.00;25.80;;;12.90;81.50;;;;;;5070082;28;37386;-56
2022/03/22 08:12:03;;;;;;;40.00;26.55;;;12.90;79.90;;;;;;5070041;28;38819;-56
2022/03/22 08:14:30;;;;;;;37.97;26.20;;;13.00;79.40;;;;;;5069806;27;38993;-54
2022/03/22 08:16:59;;;;;;;40.33;27.33;;;12.90;78.60;;;;;;5070762;28;39162;-56
2022/03/22 08:19:29;;;;;;;35.50;25.85;;;12.80;78.10;;;;;;5070172;27;37934;-56
2022/03/22 08:21:56;;;;;;;36.58;26.67;;;12.80;78.10;;;;;;5069721;28;36411;-56
2022/03/22 08:24:24;;;;;;;35.80;26.50;;;12.80;78.20;;;;;;5070617;27;37379;-56
2022/03/22 08:26:52;;;;;;;34.00;25.45;;;12.80;78.30;;;;;;5069885;27;37217;-57
2022/03/22 08:29:19;;;;;;;35.85;24.60;;;12.80;78.30;;;;;;5070751;27;36269;-56
2022/03/22 08:31:47;;;;;;;37.60;25.88;;;12.90;78.10;;;;;;5069156;28;38771;-56
2022/03/22 08:34:15;;;;;;;36.58;25.80;;;13.00;77.20;;;;;;5068703;28;37451;-56
2022/03/22 08:36:43;;;;;;;33.58;25.35;;;13.00;76.80;;;;;;5069754;27;37246;-56
2022/03/22 08:39:11;;;;;;;38.42;26.95;;;13.10;75.40;;;;;;5070262;27;36267;-56
2022/03/22 08:41:39;;;;;;;32.88;25.25;;;13.20;74.40;;;;;;5069796;27;36339;-56
2022/03/22 08:44:07;;;;;;;33.75;26.05;;;13.20;74.20;;;;;;5069554;28;37644;-56
2022/03/22 08:46:35;;;;;;;36.63;25.65;;;13.40;75.00;;;;;;5069869;28;36739;-56
2022/03/22 08:49:02;;;;;;;37.80;26.23;;;13.40;74.50;;;;;;5069211;28;36230;-56
2022/03/22 08:51:31;;;;;;;38.63;26.85;;;13.50;74.20;;;;;;5070200;27;37501;-56
2022/03/22 08:53:59;;;;;;;34.47;25.83;;;13.70;74.20;;;;;;5069433;27;38926;-56
2022/03/22 08:56:26;;;;;;;33.17;26.05;;;13.80;74.10;;;;;;5070368;27;36913;-56
2022/03/22 08:58:54;;;;;;;32.35;26.38;;;14.10;74.00;;;;;;5070012;27;38238;-57
2022/03/22 09:01:27;;;;;;;35.53;26.92;;;14.40;72.50;;;;;;5069375;27;36491;-56
2022/03/22 09:06:41;;;;;;;39.47;25.25;;;15.20;71.70;;;;;;5067798;28;37852;-57
2022/03/22 09:09:10;;;;;;;40.38;25.08;;;15.80;68.70;;;;;;5066389;28;37955;-57
2022/03/22 09:11:38;;;;;;;37.08;24.42;;;16.30;64.40;;;;;;5065943;28;37714;-56
2022/03/22 09:14:06;;;;;;;34.20;23.13;;;16.60;62.40;;;;;;5069291;28;38687;-57
2022/03/22 09:16:34;;;;;;;34.58;25.27;;;16.60;60.60;;;;;;5066851;28;39158;-57
2022/03/22 09:19:01;;;;;;;35.28;24.00;;;16.70;60.00;;;;;;5066021;28;37612;-56
2022/03/22 09:21:29;;;;;;;37.10;24.90;;;16.70;59.70;;;;;;5067325;27;38782;-57
2022/03/22 09:23:58;;;;;;;34.65;24.42;;;17.00;58.80;;;;;;5066815;28;37286;-57
2022/03/22 09:26:26;;;;;;;38.78;24.15;;;17.60;57.50;;;;;;5067231;28;36774;-57
2022/03/22 09:28:53;;;;;;;29.83;23.67;;;18.10;55.40;;;;;;5066709;27;36318;-57
2022/03/22 09:31:23;;;;;;;31.40;24.05;;;18.60;54.50;;;;;;5067547;28;43756;-57
2022/03/22 09:33:51;;;;;;;32.78;24.35;;;19.00;53.70;;;;;;5061216;27;37221;-56
2022/03/22 09:36:19;;;;;;;29.25;23.80;;;19.30;52.00;;;;;;5063884;27;36308;-56
2022/03/22 09:38:46;;;;;;;31.73;23.33;;;19.70;51.10;;;;;;5064246;27;38243;-57
2022/03/22 09:41:16;;;;;;;28.30;22.48;;;19.80;50.60;;;;;;5063774;27;37884;-57
2022/03/22 09:43:47;;;;;;;29.35;23.30;;;19.80;49.60;;;;;;5064699;28;36643;-57
2022/03/22 09:46:18;;;;;;;29.83;23.42;;;19.80;50.00;;;;;;5064837;27;37110;-57
2022/03/22 09:48:46;;;;;;;29.98;22.42;;;19.80;49.60;;;;;;5064769;28;38105;-57
2022/03/22 09:54:00;;;;;;;31.42;24.27;;;20.00;47.90;;;;;;5064520;28;37463;-57
2022/03/22 09:56:30;;;;;;;29.75;22.98;;;20.30;47.00;;;;;;5063304;27;35364;-57
2022/03/22 09:58:59;;;;;;;29.83;22.05;;;20.60;45.30;;;;;;5063586;28;38530;-57
2022/03/22 10:01:27;;;;;;;28.30;21.08;;;21.00;44.30;;;;;;5064674;27;38492;-57
2022/03/22 10:04:02;;;;;;;36.13;22.52;;;21.30;43.80;;;;;;5064876;27;38779;-57
2022/03/22 10:06:30;;;;;;;33.58;21.75;;;21.40;41.90;;;;;;5065055;27;36851;-57
2022/03/22 10:08:58;;;;;;;30.40;21.02;;;21.60;42.90;;;;;;5065938;28;36325;-57
2022/03/22 10:11:39;;;;;;;33.10;22.58;;;21.50;42.20;;;;;;5066440;27;20054;-57
2022/03/22 10:14:08;;;;;;;29.45;21.73;;;21.40;41.50;;;;;;5066403;27;36177;-57
2022/03/22 10:16:46;;;;;;;36.13;23.98;;;21.20;43.30;;;;;;5065668;28;36963;-57
2022/03/22 10:19:22;;;;;;;32.25;22.63;;;21.00;43.60;;;;;;5065978;28;37688;-57
2022/03/22 10:21:50;;;;;;;32.33;23.05;;;20.90;43.90;;;;;;5066068;27;38341;-57
2022/03/22 10:24:17;;;;;;;33.03;23.08;;;20.90;45.00;;;;;;5066056;27;37889;-57
2022/03/22 10:26:47;;;;;;;27.63;21.50;;;20.90;44.90;;;;;;5066139;28;35400;-57
2022/03/22 10:29:15;;;;;;;27.25;21.73;;;21.10;45.00;;;;;;5064967;28;39391;-57
2022/03/22 10:31:44;;;;;;;28.95;20.20;;;21.30;44.10;;;;;;5066215;27;39773;-57
2022/03/22 10:34:13;;;;;;;29.83;22.55;;;21.70;43.00;;;;;;5064957;28;37820;-57
2022/03/22 10:36:42;;;;;;;29.23;21.77;;;22.10;41.90;;;;;;5064438;27;36516;-57
2022/03/22 10:39:12;;;;;;;34.13;21.88;;;22.50;40.50;;;;;;5065448;27;37796;-57
2022/03/22 10:41:42;;;;;;;26.60;19.83;;;22.90;40.30;;;;;;5064743;28;39634;-57
2022/03/22 10:44:13;;;;;;;30.35;20.70;;;23.10;39.20;;;;;;5065539;27;39710;-57
2022/03/22 10:46:42;;;;;;;31.15;22.42;;;23.40;38.10;;;;;;5065231;27;36694;-57
2022/03/22 10:49:11;;;;;;;30.42;20.80;;;23.40;38.20;;;;;;5064307;28;37758;-56
2022/03/22 10:51:46;;;;;;;33.15;21.17;;;23.40;38.70;;;;;;5062274;28;38395;-57
2022/03/22 10:54:16;;;;;;;29.02;21.48;;;23.40;38.30;;;;;;5063940;28;38773;-57
2022/03/22 10:56:47;;;;;;;31.23;21.88;;;23.40;37.80;;;;;;5062139;27;38013;-57
2022/03/22 10:59:17;;;;;;;30.50;20.88;;;23.20;38.30;;;;;;5062124;28;37467;-57
2022/03/22 11:01:46;;;;;;;25.48;20.30;;;23.00;38.40;;;;;;5068766;28;37155;-57
2022/03/22 11:04:16;;;;;;;32.65;22.27;;;22.70;39.70;;;;;;5068104;28;37811;-57
2022/03/22 11:06:46;;;;;;;31.27;21.75;;;22.50;40.30;;;;;;5068044;27;37010;-57
2022/03/22 11:09:14;;;;;;;30.65;21.80;;;22.30;39.50;;;;;;5067920;28;36195;-57
2022/03/22 11:11:43;;;;;;;27.65;21.20;;;22.20;40.40;;;;;;5069380;28;37194;-57
2022/03/22 11:14:16;;;;;;;30.20;21.83;;;22.30;40.30;;;;;;5068587;27;36767;-57
2022/03/22 11:16:47;;;;;;;29.75;20.45;;;22.20;40.50;;;;;;5068584;28;39176;-57
2022/03/22 11:19:16;;;;;;;28.58;21.55;;;22.10;40.60;;;;;;5069114;27;38356;-57
2022/03/22 11:21:44;;;;;;;28.95;21.52;;;22.10;41.20;;;;;;5068490;27;38936;-57
2022/03/22 11:24:13;;;;;;;32.58;20.95;;;22.00;40.40;;;;;;5068627;28;37322;-57
2022/03/22 11:26:43;;;;;;;31.02;21.13;;;21.90;40.50;;;;;;5069057;27;36702;-57
2022/03/22 11:29:17;;;;;;;27.73;20.73;;;21.80;40.20;;;;;;5068329;27;35614;-57
2022/03/22 11:34:08;;;;;;;31.30;20.77;;;21.90;40.50;;;;;;5069102;27;38588;-57
2022/03/22 11:34:32;;;;;;;29.88;19.83;;;21.90;41.20;;;;;;5069175;28;36956;-57
2022/03/22 11:37:01;;;;;;;27.75;19.92;;;22.00;41.50;;;;;;5067840;27;37354;-57
2022/03/22 11:42:18;;;;;;;26.17;20.15;;;21.90;41.60;;;;;;5067143;28;38291;-57
2022/03/22 11:44:57;;;;;;;30.80;20.58;;;21.80;40.60;;;;;;5069505;27;37403;-56
2022/03/22 11:47:25;;;;;;;26.52;19.45;;;21.80;41.70;;;;;;5069572;28;36341;-57
2022/03/22 11:49:54;;;;;;;27.67;20.27;;;21.90;41.30;;;;;;5068710;27;37589;-57
2022/03/22 11:52:23;;;;;;;33.10;20.50;;;21.80;40.70;;;;;;5067549;27;38226;-57
2022/03/22 11:54:56;;;;;;;27.45;20.05;;;21.80;40.70;;;;;;5069062;27;36079;-57
2022/03/22 11:57:23;;;;;;;27.35;20.25;;;21.70;40.10;;;;;;5067037;28;37183;-57
2022/03/22 11:59:52;;;;;;;31.88;21.00;;;21.60;40.50;;;;;;5068595;27;35291;-58
2022/03/22 12:02:23;;;;;;;27.38;20.58;;;21.60;40.60;;;;;;5063743;28;36633;-57
2022/03/22 12:04:53;;;;;;;29.38;19.08;;;21.60;41.00;;;;;;5067533;28;37805;-57
2022/03/22 12:07:27;;;;;;;29.38;19.10;;;21.50;41.40;;;;;;5066067;28;38449;-57
2022/03/22 12:10:03;;;;;;;31.02;19.42;;;21.60;41.50;;;;;;5066382;28;37391;-57
2022/03/22 12:12:32;;;;;;;30.52;21.02;;;21.40;40.50;;;;;;5065694;27;38811;-57
2022/03/22 12:15:01;;;;;;;35.55;22.35;;;21.40;41.30;;;;;;5065757;28;37435;-57
2022/03/22 12:17:30;;;;;;;29.45;20.38;;;21.40;41.20;;;;;;5067525;28;37720;-57
2022/03/22 12:20:02;;;;;;;30.75;20.20;;;21.20;41.30;;;;;;5066298;28;37246;-57
2022/03/22 12:22:31;;;;;;;26.50;19.58;;;21.20;41.10;;;;;;5063272;28;36567;-57
2022/03/22 12:25:00;;;;;;;31.25;20.25;;;21.20;42.00;;;;;;5065547;28;37807;-57
2022/03/22 12:27:28;;;;;;;29.40;20.38;;;21.20;42.10;;;;;;5065971;28;36912;-57
2022/03/22 12:29:56;;;;;;;28.60;20.13;;;21.10;41.50;;;;;;5066820;27;39271;-57
2022/03/22 12:32:26;;;;;;;32.40;20.45;;;21.00;42.00;;;;;;5066359;28;38465;-57
2022/03/22 12:34:57;;;;;;;29.55;21.15;;;21.00;42.10;;;;;;5066533;27;37638;-57
2022/03/22 12:37:24;;;;;;;33.42;20.83;;;20.90;42.20;;;;;;5064496;28;36621;-56
2022/03/22 12:39:52;;;;;;;31.83;21.55;;;20.80;42.10;;;;;;5066319;28;37276;-57
2022/03/22 12:42:19;;;;;;;29.60;21.23;;;20.80;41.90;;;;;;5065946;27;39027;-57
2022/03/22 12:44:48;;;;;;;30.33;18.95;;;20.80;42.20;;;;;;5066483;27;40278;-56
2022/03/22 12:47:19;;;;;;;27.85;18.30;;;20.70;42.90;;;;;;5065803;27;35632;-57
2022/03/22 12:49:47;;;;;;;25.45;17.58;;;20.60;43.30;;;;;;5067311;28;37005;-57
2022/03/22 12:52:16;;;;;;;30.30;19.73;;;20.70;43.10;;;;;;5066135;28;39362;-57
2022/03/22 12:54:44;;;;;;;29.55;19.40;;;20.70;42.50;;;;;;5066070;28;37073;-56
2022/03/22 12:57:14;;;;;;;38.17;18.40;;;20.70;42.00;;;;;;5065013;28;36372;-57
2022/03/22 12:59:43;;;;;;;27.33;18.58;;;20.70;41.90;;;;;;5065924;28;37456;-57
2022/03/22 13:02:11;;;;;;;28.35;18.25;;;20.60;41.50;;;;;;5065587;27;37804;-57
2022/03/22 13:04:46;;;;;;;28.90;18.42;;;20.50;41.10;;;;;;5065732;27;35986;-57
2022/03/22 13:07:20;;;;;;;31.25;19.02;;;20.50;41.40;;;;;;5065539;28;37393;-57
2022/03/22 13:12:33;;;;;;;30.23;18.13;;;20.50;42.00;;;;;;5026038;28;38820;-57
2022/03/22 13:15:04;;;;;;;30.65;18.80;;;20.50;42.70;;;;;;5026151;28;37301;-57
2022/03/22 13:17:37;;;;;;;33.53;18.20;;;20.50;43.30;;;;;;5026547;28;36865;-57
2022/03/22 13:20:13;;;;;;;28.77;15.77;;;20.50;42.10;;;;;;5023558;28;37561;-57